sensor_id;sensor_type;location;lat;lon;timestamp;P1;durP1;ratioP1;P2;durP2;ratioP2
28176;SDS011;15461;41.652;9.378;2023-11-21T00:01:02;1.05;;;0.30;;
28176;SDS011;15461;41.652;9.378;2023-11-21T00:03:30;1.25;;;0.40;;
28176;SDS011;15461;41.652;9.378;2023-11-21T00:05:56;2.00;;;0.38;;
28176;SDS011;15461;41.652;9.378;2023-11-21T00:08:21;1.20;;;0.35;;
28176;SDS011;15461;41.652;9.378;2023-11-21T00:10:47;2.45;;;0.68;;
28176;SDS011;15461;41.652;9.378;2023-11-21T00:13:13;0.82;;;0.40;;
28176;SDS011;15461;41.652;9.378;2023-11-21T00:15:39;0.20;;;0.20;;
28176;SDS011;15461;41.652;9.378;2023-11-21T00:18:05;1.10;;;0.60;;
28176;SDS011;15461;41.652;9.378;2023-11-21T00:20:31;0.22;;;0.20;;
28176;SDS011;15461;41.652;9.378;2023-11-21T00:22:57;0.80;;;0.38;;
28176;SDS011;15461;41.652;9.378;2023-11-21T00:25:24;1.88;;;0.40;;
28176;SDS011;15461;41.652;9.378;2023-11-21T00:27:50;0.38;;;0.20;;
28176;SDS011;15461;41.652;9.378;2023-11-21T00:30:16;1.05;;;0.43;;
28176;SDS011;15461;41.652;9.378;2023-11-21T00:32:42;0.40;;;0.30;;
28176;SDS011;15461;41.652;9.378;2023-11-21T00:35:08;0.70;;;0.30;;
28176;SDS011;15461;41.652;9.378;2023-11-21T00:37:34;0.30;;;0.25;;
28176;SDS011;15461;41.652;9.378;2023-11-21T00:40:00;2.47;;;0.40;;
28176;SDS011;15461;41.652;9.378;2023-11-21T00:42:30;0.45;;;0.30;;
28176;SDS011;15461;41.652;9.378;2023-11-21T00:44:59;2.20;;;0.20;;
28176;SDS011;15461;41.652;9.378;2023-11-21T00:47:25;1.00;;;0.50;;
28176;SDS011;15461;41.652;9.378;2023-11-21T00:49:50;0.80;;;0.45;;
28176;SDS011;15461;41.652;9.378;2023-11-21T00:52:16;0.98;;;0.68;;
28176;SDS011;15461;41.652;9.378;2023-11-21T00:54:42;1.55;;;0.52;;
28176;SDS011;15461;41.652;9.378;2023-11-21T00:57:08;1.17;;;0.40;;
28176;SDS011;15461;41.652;9.378;2023-11-21T00:59:34;0.75;;;0.55;;
28176;SDS011;15461;41.652;9.378;2023-11-21T01:02:00;2.03;;;0.70;;
28176;SDS011;15461;41.652;9.378;2023-11-21T01:04:26;1.15;;;0.57;;
28176;SDS011;15461;41.652;9.378;2023-11-21T01:06:53;1.38;;;0.60;;
28176;SDS011;15461;41.652;9.378;2023-11-21T01:09:19;4.63;;;0.70;;
28176;SDS011;15461;41.652;9.378;2023-11-21T01:11:45;2.58;;;0.70;;
28176;SDS011;15461;41.652;9.378;2023-11-21T01:21:08;2.42;;;0.70;;
28176;SDS011;15461;41.652;9.378;2023-11-21T01:23:35;4.88;;;0.82;;
28176;SDS011;15461;41.652;9.378;2023-11-21T01:26:01;1.77;;;0.70;;
28176;SDS011;15461;41.652;9.378;2023-11-21T01:28:27;1.77;;;0.75;;
28176;SDS011;15461;41.652;9.378;2023-11-21T01:30:53;2.75;;;0.60;;
28176;SDS011;15461;41.652;9.378;2023-11-21T01:33:22;2.22;;;0.68;;
28176;SDS011;15461;41.652;9.378;2023-11-21T01:35:51;1.92;;;0.60;;
28176;SDS011;15461;41.652;9.378;2023-11-21T01:38:20;1.48;;;0.50;;
28176;SDS011;15461;41.652;9.378;2023-11-21T01:40:47;2.17;;;0.70;;
28176;SDS011;15461;41.652;9.378;2023-11-21T01:43:13;2.85;;;0.75;;
28176;SDS011;15461;41.652;9.378;2023-11-21T01:45:38;1.73;;;0.80;;
28176;SDS011;15461;41.652;9.378;2023-11-21T01:48:04;2.03;;;0.90;;
28176;SDS011;15461;41.652;9.378;2023-11-21T01:50:32;2.08;;;0.65;;
28176;SDS011;15461;41.652;9.378;2023-11-21T01:52:58;3.03;;;0.73;;
28176;SDS011;15461;41.652;9.378;2023-11-21T01:55:26;2.58;;;0.60;;
28176;SDS011;15461;41.652;9.378;2023-11-21T01:57:53;3.75;;;0.60;;
28176;SDS011;15461;41.652;9.378;2023-11-21T02:00:20;3.70;;;0.65;;
28176;SDS011;15461;41.652;9.378;2023-11-21T02:02:46;3.97;;;1.13;;
28176;SDS011;15461;41.652;9.378;2023-11-21T02:05:16;4.05;;;0.70;;
28176;SDS011;15461;41.652;9.378;2023-11-21T02:07:44;1.98;;;0.50;;
28176;SDS011;15461;41.652;9.378;2023-11-21T02:10:11;3.42;;;0.65;;
28176;SDS011;15461;41.652;9.378;2023-11-21T02:12:40;1.70;;;0.68;;
28176;SDS011;15461;41.652;9.378;2023-11-21T02:15:08;4.43;;;0.98;;
28176;SDS011;15461;41.652;9.378;2023-11-21T02:17:43;1.92;;;0.60;;
28176;SDS011;15461;41.652;9.378;2023-11-21T02:20:12;2.50;;;0.90;;
28176;SDS011;15461;41.652;9.378;2023-11-21T02:22:43;2.10;;;0.70;;
28176;SDS011;15461;41.652;9.378;2023-11-21T02:25:14;3.25;;;0.70;;
28176;SDS011;15461;41.652;9.378;2023-11-21T02:27:40;3.88;;;0.95;;
28176;SDS011;15461;41.652;9.378;2023-11-21T02:30:07;1.02;;;0.70;;
28176;SDS011;15461;41.652;9.378;2023-11-21T02:32:37;2.67;;;0.75;;
28176;SDS011;15461;41.652;9.378;2023-11-21T02:35:03;2.58;;;0.82;;
28176;SDS011;15461;41.652;9.378;2023-11-21T02:37:33;2.15;;;0.70;;
28176;SDS011;15461;41.652;9.378;2023-11-21T02:39:59;1.13;;;0.80;;
28176;SDS011;15461;41.652;9.378;2023-11-21T02:42:24;1.52;;;0.93;;
28176;SDS011;15461;41.652;9.378;2023-11-21T02:44:50;3.67;;;1.00;;
28176;SDS011;15461;41.652;9.378;2023-11-21T02:47:16;3.28;;;0.70;;
28176;SDS011;15461;41.652;9.378;2023-11-21T02:49:42;3.85;;;0.90;;
28176;SDS011;15461;41.652;9.378;2023-11-21T02:52:09;1.83;;;0.60;;
28176;SDS011;15461;41.652;9.378;2023-11-21T02:54:34;1.27;;;0.70;;
28176;SDS011;15461;41.652;9.378;2023-11-21T02:57:01;1.02;;;0.80;;
28176;SDS011;15461;41.652;9.378;2023-11-21T02:59:29;2.35;;;0.88;;
28176;SDS011;15461;41.652;9.378;2023-11-21T03:01:54;2.10;;;0.93;;
28176;SDS011;15461;41.652;9.378;2023-11-21T03:04:22;3.13;;;0.88;;
28176;SDS011;15461;41.652;9.378;2023-11-21T03:06:48;2.10;;;0.70;;
28176;SDS011;15461;41.652;9.378;2023-11-21T03:09:14;0.85;;;0.70;;
28176;SDS011;15461;41.652;9.378;2023-11-21T03:11:41;6.13;;;1.30;;
28176;SDS011;15461;41.652;9.378;2023-11-21T03:14:07;1.85;;;0.70;;
28176;SDS011;15461;41.652;9.378;2023-11-21T03:16:33;4.65;;;0.90;;
28176;SDS011;15461;41.652;9.378;2023-11-21T03:18:59;5.50;;;0.95;;
28176;SDS011;15461;41.652;9.378;2023-11-21T03:21:26;1.20;;;0.75;;
28176;SDS011;15461;41.652;9.378;2023-11-21T03:23:52;1.42;;;0.68;;
28176;SDS011;15461;41.652;9.378;2023-11-21T03:26:18;3.83;;;0.88;;
28176;SDS011;15461;41.652;9.378;2023-11-21T03:28:44;6.55;;;1.00;;
28176;SDS011;15461;41.652;9.378;2023-11-21T03:31:11;4.10;;;1.20;;
28176;SDS011;15461;41.652;9.378;2023-11-21T03:33:37;4.40;;;1.15;;
28176;SDS011;15461;41.652;9.378;2023-11-21T03:36:02;2.65;;;0.93;;
28176;SDS011;15461;41.652;9.378;2023-11-21T03:38:29;3.60;;;1.20;;
28176;SDS011;15461;41.652;9.378;2023-11-21T03:40:55;3.60;;;1.10;;
28176;SDS011;15461;41.652;9.378;2023-11-21T03:43:21;4.97;;;0.95;;
28176;SDS011;15461;41.652;9.378;2023-11-21T03:45:47;5.35;;;0.90;;
28176;SDS011;15461;41.652;9.378;2023-11-21T03:48:13;2.22;;;0.88;;
28176;SDS011;15461;41.652;9.378;2023-11-21T03:50:39;6.97;;;0.90;;
28176;SDS011;15461;41.652;9.378;2023-11-21T03:53:05;6.57;;;1.13;;
28176;SDS011;15461;41.652;9.378;2023-11-21T03:55:31;5.03;;;1.00;;
28176;SDS011;15461;41.652;9.378;2023-11-21T03:57:57;10.52;;;1.10;;
28176;SDS011;15461;41.652;9.378;2023-11-21T04:00:24;1.50;;;0.52;;
28176;SDS011;15461;41.652;9.378;2023-11-21T04:02:52;0.88;;;0.45;;
28176;SDS011;15461;41.652;9.378;2023-11-21T04:05:19;2.63;;;0.73;;
28176;SDS011;15461;41.652;9.378;2023-11-21T04:07:46;1.92;;;0.60;;
28176;SDS011;15461;41.652;9.378;2023-11-21T04:10:13;2.42;;;1.00;;
28176;SDS011;15461;41.652;9.378;2023-11-21T04:12:38;4.55;;;0.80;;
28176;SDS011;15461;41.652;9.378;2023-11-21T04:15:04;2.03;;;1.05;;
28176;SDS011;15461;41.652;9.378;2023-11-21T04:17:30;1.95;;;0.77;;
28176;SDS011;15461;41.652;9.378;2023-11-21T04:19:56;4.07;;;0.80;;
28176;SDS011;15461;41.652;9.378;2023-11-21T04:22:22;2.88;;;0.77;;
28176;SDS011;15461;41.652;9.378;2023-11-21T04:24:48;0.88;;;0.63;;
28176;SDS011;15461;41.652;9.378;2023-11-21T04:27:14;1.30;;;0.60;;
28176;SDS011;15461;41.652;9.378;2023-11-21T04:29:40;2.67;;;0.70;;
28176;SDS011;15461;41.652;9.378;2023-11-21T04:32:06;3.92;;;0.60;;
28176;SDS011;15461;41.652;9.378;2023-11-21T04:34:33;1.95;;;0.70;;
28176;SDS011;15461;41.652;9.378;2023-11-21T04:36:59;2.30;;;0.52;;
28176;SDS011;15461;41.652;9.378;2023-11-21T04:39:25;1.95;;;0.80;;
28176;SDS011;15461;41.652;9.378;2023-11-21T04:41:51;0.98;;;0.50;;
28176;SDS011;15461;41.652;9.378;2023-11-21T04:44:17;1.20;;;0.55;;
28176;SDS011;15461;41.652;9.378;2023-11-21T04:46:43;1.30;;;0.52;;
28176;SDS011;15461;41.652;9.378;2023-11-21T04:49:09;2.13;;;0.57;;
28176;SDS011;15461;41.652;9.378;2023-11-21T04:51:36;1.63;;;0.70;;
28176;SDS011;15461;41.652;9.378;2023-11-21T04:54:01;1.17;;;0.63;;
28176;SDS011;15461;41.652;9.378;2023-11-21T04:56:27;2.63;;;0.40;;
28176;SDS011;15461;41.652;9.378;2023-11-21T04:58:54;4.38;;;0.60;;
28176;SDS011;15461;41.652;9.378;2023-11-21T05:01:20;2.90;;;0.65;;
28176;SDS011;15461;41.652;9.378;2023-11-21T05:03:46;2.28;;;0.70;;
28176;SDS011;15461;41.652;9.378;2023-11-21T05:06:12;1.27;;;0.90;;
28176;SDS011;15461;41.652;9.378;2023-11-21T05:08:39;2.70;;;0.73;;
28176;SDS011;15461;41.652;9.378;2023-11-21T05:11:05;5.20;;;1.17;;
28176;SDS011;15461;41.652;9.378;2023-11-21T05:13:33;1.85;;;0.70;;
28176;SDS011;15461;41.652;9.378;2023-11-21T05:15:59;3.38;;;0.90;;
28176;SDS011;15461;41.652;9.378;2023-11-21T05:18:25;1.73;;;0.95;;
28176;SDS011;15461;41.652;9.378;2023-11-21T05:20:55;2.00;;;0.88;;
28176;SDS011;15461;41.652;9.378;2023-11-21T05:23:21;1.30;;;0.70;;
28176;SDS011;15461;41.652;9.378;2023-11-21T05:25:47;2.20;;;0.75;;
28176;SDS011;15461;41.652;9.378;2023-11-21T05:28:12;4.90;;;0.52;;
28176;SDS011;15461;41.652;9.378;2023-11-21T05:30:38;3.55;;;0.80;;
28176;SDS011;15461;41.652;9.378;2023-11-21T05:33:04;2.42;;;0.98;;
28176;SDS011;15461;41.652;9.378;2023-11-21T05:35:30;1.90;;;0.80;;
28176;SDS011;15461;41.652;9.378;2023-11-21T05:37:56;2.33;;;0.73;;
28176;SDS011;15461;41.652;9.378;2023-11-21T05:40:22;2.53;;;0.80;;
28176;SDS011;15461;41.652;9.378;2023-11-21T05:42:48;1.13;;;0.47;;
28176;SDS011;15461;41.652;9.378;2023-11-21T05:45:14;2.00;;;0.60;;
28176;SDS011;15461;41.652;9.378;2023-11-21T05:47:41;1.92;;;0.60;;
28176;SDS011;15461;41.652;9.378;2023-11-21T05:50:09;3.28;;;0.70;;
28176;SDS011;15461;41.652;9.378;2023-11-21T05:52:37;6.57;;;1.13;;
28176;SDS011;15461;41.652;9.378;2023-11-21T05:55:03;1.23;;;0.80;;
28176;SDS011;15461;41.652;9.378;2023-11-21T05:57:36;4.57;;;0.60;;
28176;SDS011;15461;41.652;9.378;2023-11-21T06:00:07;1.13;;;0.55;;
28176;SDS011;15461;41.652;9.378;2023-11-21T06:02:51;3.30;;;0.85;;
28176;SDS011;15461;41.652;9.378;2023-11-21T06:05:18;1.38;;;0.50;;
28176;SDS011;15461;41.652;9.378;2023-11-21T06:07:45;3.63;;;0.60;;
28176;SDS011;15461;41.652;9.378;2023-11-21T06:10:11;2.30;;;0.95;;
28176;SDS011;15461;41.652;9.378;2023-11-21T06:12:39;2.90;;;1.00;;
28176;SDS011;15461;41.652;9.378;2023-11-21T06:15:08;2.80;;;0.93;;
28176;SDS011;15461;41.652;9.378;2023-11-21T06:17:35;4.20;;;1.10;;
28176;SDS011;15461;41.652;9.378;2023-11-21T06:20:05;1.23;;;0.60;;
28176;SDS011;15461;41.652;9.378;2023-11-21T06:22:38;1.90;;;0.80;;
28176;SDS011;15461;41.652;9.378;2023-11-21T06:25:05;2.42;;;0.80;;
28176;SDS011;15461;41.652;9.378;2023-11-21T06:27:33;2.05;;;0.98;;
28176;SDS011;15461;41.652;9.378;2023-11-21T06:30:01;2.88;;;0.98;;
28176;SDS011;15461;41.652;9.378;2023-11-21T06:32:27;7.82;;;1.63;;
28176;SDS011;15461;41.652;9.378;2023-11-21T06:34:58;4.22;;;1.27;;
28176;SDS011;15461;41.652;9.378;2023-11-21T06:37:26;5.95;;;1.92;;
28176;SDS011;15461;41.652;9.378;2023-11-21T06:39:52;1.42;;;1.20;;
28176;SDS011;15461;41.652;9.378;2023-11-21T06:42:19;3.97;;;1.45;;
28176;SDS011;15461;41.652;9.378;2023-11-21T06:44:45;5.45;;;3.28;;
28176;SDS011;15461;41.652;9.378;2023-11-21T06:47:11;6.43;;;2.15;;
28176;SDS011;15461;41.652;9.378;2023-11-21T06:49:37;5.85;;;2.33;;
28176;SDS011;15461;41.652;9.378;2023-11-21T06:52:04;2.38;;;1.48;;
28176;SDS011;15461;41.652;9.378;2023-11-21T06:54:33;4.45;;;2.10;;
28176;SDS011;15461;41.652;9.378;2023-11-21T06:56:59;6.72;;;1.80;;
28176;SDS011;15461;41.652;9.378;2023-11-21T06:59:25;6.68;;;1.73;;
28176;SDS011;15461;41.652;9.378;2023-11-21T07:01:53;3.38;;;1.90;;
28176;SDS011;15461;41.652;9.378;2023-11-21T07:04:19;3.95;;;1.70;;
28176;SDS011;15461;41.652;9.378;2023-11-21T07:06:45;4.32;;;1.52;;
28176;SDS011;15461;41.652;9.378;2023-11-21T07:09:11;2.60;;;1.50;;
28176;SDS011;15461;41.652;9.378;2023-11-21T07:11:37;3.72;;;1.70;;
28176;SDS011;15461;41.652;9.378;2023-11-21T07:14:04;4.25;;;1.70;;
28176;SDS011;15461;41.652;9.378;2023-11-21T07:16:34;5.15;;;1.83;;
28176;SDS011;15461;41.652;9.378;2023-11-21T07:19:03;1.95;;;1.27;;
28176;SDS011;15461;41.652;9.378;2023-11-21T07:21:34;4.28;;;1.60;;
28176;SDS011;15461;41.652;9.378;2023-11-21T07:24:01;3.90;;;1.77;;
28176;SDS011;15461;41.652;9.378;2023-11-21T07:26:28;3.42;;;1.83;;
28176;SDS011;15461;41.652;9.378;2023-11-21T07:28:54;3.00;;;1.40;;
28176;SDS011;15461;41.652;9.378;2023-11-21T07:31:21;2.50;;;1.55;;
28176;SDS011;15461;41.652;9.378;2023-11-21T07:33:50;8.10;;;1.75;;
28176;SDS011;15461;41.652;9.378;2023-11-21T07:36:17;8.38;;;1.92;;
28176;SDS011;15461;41.652;9.378;2023-11-21T07:38:43;8.05;;;1.77;;
28176;SDS011;15461;41.652;9.378;2023-11-21T07:41:10;7.40;;;1.80;;
28176;SDS011;15461;41.652;9.378;2023-11-21T07:43:36;5.35;;;1.95;;
28176;SDS011;15461;41.652;9.378;2023-11-21T07:46:02;8.23;;;2.28;;
28176;SDS011;15461;41.652;9.378;2023-11-21T07:48:29;7.43;;;2.58;;
28176;SDS011;15461;41.652;9.378;2023-11-21T07:50:56;4.90;;;2.33;;
28176;SDS011;15461;41.652;9.378;2023-11-21T07:53:23;7.07;;;2.10;;
28176;SDS011;15461;41.652;9.378;2023-11-21T07:55:50;2.70;;;1.55;;
28176;SDS011;15461;41.652;9.378;2023-11-21T07:58:17;2.95;;;1.70;;
28176;SDS011;15461;41.652;9.378;2023-11-21T08:00:43;3.30;;;1.45;;
28176;SDS011;15461;41.652;9.378;2023-11-21T08:03:09;4.00;;;1.58;;
28176;SDS011;15461;41.652;9.378;2023-11-21T08:05:36;2.72;;;1.48;;
28176;SDS011;15461;41.652;9.378;2023-11-21T08:08:02;9.80;;;1.95;;
28176;SDS011;15461;41.652;9.378;2023-11-21T08:10:28;3.38;;;1.38;;
28176;SDS011;15461;41.652;9.378;2023-11-21T08:12:55;2.03;;;1.33;;
28176;SDS011;15461;41.652;9.378;2023-11-21T08:15:21;5.78;;;1.52;;
28176;SDS011;15461;41.652;9.378;2023-11-21T08:17:47;2.70;;;1.45;;
28176;SDS011;15461;41.652;9.378;2023-11-21T08:20:13;4.03;;;1.40;;
28176;SDS011;15461;41.652;9.378;2023-11-21T08:22:42;2.58;;;1.45;;
28176;SDS011;15461;41.652;9.378;2023-11-21T08:25:08;3.72;;;1.20;;
28176;SDS011;15461;41.652;9.378;2023-11-21T08:27:34;3.38;;;1.17;;
28176;SDS011;15461;41.652;9.378;2023-11-21T08:30:03;4.20;;;1.55;;
28176;SDS011;15461;41.652;9.378;2023-11-21T08:32:29;4.38;;;1.58;;
28176;SDS011;15461;41.652;9.378;2023-11-21T08:34:58;3.67;;;1.35;;
28176;SDS011;15461;41.652;9.378;2023-11-21T08:37:25;3.90;;;1.67;;
28176;SDS011;15461;41.652;9.378;2023-11-21T08:39:52;3.90;;;1.00;;
28176;SDS011;15461;41.652;9.378;2023-11-21T08:42:18;4.18;;;1.50;;
28176;SDS011;15461;41.652;9.378;2023-11-21T08:44:44;6.40;;;1.67;;
28176;SDS011;15461;41.652;9.378;2023-11-21T08:47:11;5.05;;;1.15;;
28176;SDS011;15461;41.652;9.378;2023-11-21T08:49:37;5.70;;;1.30;;
28176;SDS011;15461;41.652;9.378;2023-11-21T08:52:03;10.02;;;1.55;;
28176;SDS011;15461;41.652;9.378;2023-11-21T08:54:30;2.97;;;1.17;;
28176;SDS011;15461;41.652;9.378;2023-11-21T08:56:58;6.97;;;1.67;;
28176;SDS011;15461;41.652;9.378;2023-11-21T08:59:24;9.93;;;4.90;;
28176;SDS011;15461;41.652;9.378;2023-11-21T09:01:50;31.60;;;14.27;;
28176;SDS011;15461;41.652;9.378;2023-11-21T09:04:16;28.30;;;11.77;;
28176;SDS011;15461;41.652;9.378;2023-11-21T09:06:42;4.70;;;2.05;;
28176;SDS011;15461;41.652;9.378;2023-11-21T09:09:08;5.10;;;2.08;;
28176;SDS011;15461;41.652;9.378;2023-11-21T09:11:35;4.97;;;2.10;;
28176;SDS011;15461;41.652;9.378;2023-11-21T09:14:02;6.18;;;1.77;;
28176;SDS011;15461;41.652;9.378;2023-11-21T09:16:31;2.45;;;1.30;;
28176;SDS011;15461;41.652;9.378;2023-11-21T09:18:57;3.45;;;1.10;;
28176;SDS011;15461;41.652;9.378;2023-11-21T09:21:23;9.25;;;1.10;;
28176;SDS011;15461;41.652;9.378;2023-11-21T09:23:50;6.22;;;2.58;;
28176;SDS011;15461;41.652;9.378;2023-11-21T09:26:16;5.28;;;1.42;;
28176;SDS011;15461;41.652;9.378;2023-11-21T09:28:43;4.43;;;1.48;;
28176;SDS011;15461;41.652;9.378;2023-11-21T09:31:12;7.75;;;1.58;;
28176;SDS011;15461;41.652;9.378;2023-11-21T09:33:41;12.98;;;4.75;;
28176;SDS011;15461;41.652;9.378;2023-11-21T09:36:13;4.35;;;1.20;;
28176;SDS011;15461;41.652;9.378;2023-11-21T09:38:40;6.93;;;1.55;;
28176;SDS011;15461;41.652;9.378;2023-11-21T09:41:08;7.13;;;2.20;;
28176;SDS011;15461;41.652;9.378;2023-11-21T09:43:45;10.02;;;4.57;;
28176;SDS011;15461;41.652;9.378;2023-11-21T09:46:12;6.88;;;2.28;;
28176;SDS011;15461;41.652;9.378;2023-11-21T09:48:45;4.80;;;1.35;;
28176;SDS011;15461;41.652;9.378;2023-11-21T09:51:16;8.95;;;1.77;;
28176;SDS011;15461;41.652;9.378;2023-11-21T09:53:45;3.20;;;1.30;;
28176;SDS011;15461;41.652;9.378;2023-11-21T09:56:14;10.05;;;2.28;;
28176;SDS011;15461;41.652;9.378;2023-11-21T09:58:44;6.78;;;2.53;;
28176;SDS011;15461;41.652;9.378;2023-11-21T10:01:10;5.70;;;1.98;;
28176;SDS011;15461;41.652;9.378;2023-11-21T10:03:39;3.63;;;1.58;;
28176;SDS011;15461;41.652;9.378;2023-11-21T10:06:07;6.72;;;1.95;;
28176;SDS011;15461;41.652;9.378;2023-11-21T10:08:34;9.70;;;1.90;;
28176;SDS011;15461;41.652;9.378;2023-11-21T10:11:01;6.70;;;2.00;;
28176;SDS011;15461;41.652;9.378;2023-11-21T10:13:31;4.55;;;1.38;;
28176;SDS011;15461;41.652;9.378;2023-11-21T10:15:58;6.53;;;1.33;;
28176;SDS011;15461;41.652;9.378;2023-11-21T10:18:25;3.53;;;1.90;;
28176;SDS011;15461;41.652;9.378;2023-11-21T10:20:52;4.75;;;1.50;;
28176;SDS011;15461;41.652;9.378;2023-11-21T10:23:19;4.45;;;1.73;;
28176;SDS011;15461;41.652;9.378;2023-11-21T10:25:53;4.53;;;1.40;;
28176;SDS011;15461;41.652;9.378;2023-11-21T10:28:20;6.97;;;1.83;;
28176;SDS011;15461;41.652;9.378;2023-11-21T10:30:46;6.68;;;1.88;;
28176;SDS011;15461;41.652;9.378;2023-11-21T10:33:12;7.20;;;1.30;;
28176;SDS011;15461;41.652;9.378;2023-11-21T10:35:47;7.55;;;1.48;;
28176;SDS011;15461;41.652;9.378;2023-11-21T10:38:19;4.43;;;1.23;;
28176;SDS011;15461;41.652;9.378;2023-11-21T10:40:49;4.35;;;1.15;;
28176;SDS011;15461;41.652;9.378;2023-11-21T10:43:16;8.50;;;1.73;;
28176;SDS011;15461;41.652;9.378;2023-11-21T10:45:42;1.52;;;0.80;;
28176;SDS011;15461;41.652;9.378;2023-11-21T10:48:09;4.03;;;1.10;;
28176;SDS011;15461;41.652;9.378;2023-11-21T10:50:36;10.30;;;1.58;;
28176;SDS011;15461;41.652;9.378;2023-11-21T10:53:03;4.47;;;1.55;;
28176;SDS011;15461;41.652;9.378;2023-11-21T10:55:30;3.50;;;1.00;;
28176;SDS011;15461;41.652;9.378;2023-11-21T10:57:58;7.53;;;1.70;;
28176;SDS011;15461;41.652;9.378;2023-11-21T11:00:27;6.93;;;1.40;;
28176;SDS011;15461;41.652;9.378;2023-11-21T11:02:53;5.18;;;1.23;;
28176;SDS011;15461;41.652;9.378;2023-11-21T11:05:20;3.10;;;1.13;;
28176;SDS011;15461;41.652;9.378;2023-11-21T11:07:55;7.38;;;1.30;;
28176;SDS011;15461;41.652;9.378;2023-11-21T11:10:28;3.42;;;0.95;;
28176;SDS011;15461;41.652;9.378;2023-11-21T11:12:57;3.42;;;1.13;;
28176;SDS011;15461;41.652;9.378;2023-11-21T11:15:24;2.30;;;1.00;;
28176;SDS011;15461;41.652;9.378;2023-11-21T11:17:51;9.60;;;1.55;;
28176;SDS011;15461;41.652;9.378;2023-11-21T11:20:17;4.05;;;0.98;;
28176;SDS011;15461;41.652;9.378;2023-11-21T11:22:56;7.80;;;1.30;;
28176;SDS011;15461;41.652;9.378;2023-11-21T11:26:01;5.45;;;1.13;;
28176;SDS011;15461;41.652;9.378;2023-11-21T11:29:01;3.38;;;0.88;;
28176;SDS011;15461;41.652;9.378;2023-11-21T11:34:28;5.47;;;1.23;;
28176;SDS011;15461;41.652;9.378;2023-11-21T11:39:29;3.53;;;1.10;;
28176;SDS011;15461;41.652;9.378;2023-11-21T11:41:56;4.50;;;1.05;;
28176;SDS011;15461;41.652;9.378;2023-11-21T11:47:32;3.35;;;1.08;;
28176;SDS011;15461;41.652;9.378;2023-11-21T11:50:05;1.67;;;0.68;;
28176;SDS011;15461;41.652;9.378;2023-11-21T11:52:47;4.85;;;1.05;;
28176;SDS011;15461;41.652;9.378;2023-11-21T11:55:17;5.32;;;1.00;;
28176;SDS011;15461;41.652;9.378;2023-11-21T11:57:46;3.75;;;0.93;;
28176;SDS011;15461;41.652;9.378;2023-11-21T12:00:16;5.45;;;1.25;;
28176;SDS011;15461;41.652;9.378;2023-11-21T12:02:48;5.72;;;0.82;;
28176;SDS011;15461;41.652;9.378;2023-11-21T12:05:17;1.65;;;0.70;;
28176;SDS011;15461;41.652;9.378;2023-11-21T12:10:32;4.85;;;1.10;;
28176;SDS011;15461;41.652;9.378;2023-11-21T12:13:02;3.95;;;1.05;;
28176;SDS011;15461;41.652;9.378;2023-11-21T12:15:32;3.03;;;0.75;;
28176;SDS011;15461;41.652;9.378;2023-11-21T12:18:00;6.57;;;1.10;;
28176;SDS011;15461;41.652;9.378;2023-11-21T12:20:26;3.15;;;0.73;;
28176;SDS011;15461;41.652;9.378;2023-11-21T12:22:54;0.40;;;0.40;;
28176;SDS011;15461;41.652;9.378;2023-11-21T12:25:29;2.78;;;0.55;;
28176;SDS011;15461;41.652;9.378;2023-11-21T12:27:59;4.15;;;0.50;;
28176;SDS011;15461;41.652;9.378;2023-11-21T12:30:26;1.10;;;0.57;;
28176;SDS011;15461;41.652;9.378;2023-11-21T12:32:56;0.80;;;0.50;;
28176;SDS011;15461;41.652;9.378;2023-11-21T12:35:26;1.13;;;0.32;;
28176;SDS011;15461;41.652;9.378;2023-11-21T12:37:54;1.33;;;0.40;;
28176;SDS011;15461;41.652;9.378;2023-11-21T12:40:22;1.08;;;0.50;;
28176;SDS011;15461;41.652;9.378;2023-11-21T12:42:49;0.60;;;0.40;;
28176;SDS011;15461;41.652;9.378;2023-11-21T12:45:19;2.22;;;0.80;;
28176;SDS011;15461;41.652;9.378;2023-11-21T12:47:47;1.88;;;0.60;;
28176;SDS011;15461;41.652;9.378;2023-11-21T12:50:21;2.75;;;0.65;;
28176;SDS011;15461;41.652;9.378;2023-11-21T12:52:52;1.33;;;0.45;;
28176;SDS011;15461;41.652;9.378;2023-11-21T12:55:19;3.13;;;0.40;;
28176;SDS011;15461;41.652;9.378;2023-11-21T12:57:50;1.15;;;0.55;;
28176;SDS011;15461;41.652;9.378;2023-11-21T13:00:20;1.58;;;0.30;;
28176;SDS011;15461;41.652;9.378;2023-11-21T13:02:54;9.52;;;0.88;;
28176;SDS011;15461;41.652;9.378;2023-11-21T13:05:33;0.68;;;0.40;;
28176;SDS011;15461;41.652;9.378;2023-11-21T13:08:01;1.05;;;0.47;;
28176;SDS011;15461;41.652;9.378;2023-11-21T13:10:29;2.50;;;0.75;;
28176;SDS011;15461;41.652;9.378;2023-11-21T13:13:00;2.50;;;0.60;;
28176;SDS011;15461;41.652;9.378;2023-11-21T13:15:27;2.08;;;0.45;;
28176;SDS011;15461;41.652;9.378;2023-11-21T13:17:53;2.55;;;0.82;;
28176;SDS011;15461;41.652;9.378;2023-11-21T13:20:21;1.63;;;0.35;;
28176;SDS011;15461;41.652;9.378;2023-11-21T13:22:48;2.63;;;0.65;;
28176;SDS011;15461;41.652;9.378;2023-11-21T13:25:25;3.00;;;0.73;;
28176;SDS011;15461;41.652;9.378;2023-11-21T13:27:57;2.72;;;0.60;;
28176;SDS011;15461;41.652;9.378;2023-11-21T13:30:24;3.50;;;0.77;;
28176;SDS011;15461;41.652;9.378;2023-11-21T13:33:01;2.58;;;0.50;;
28176;SDS011;15461;41.652;9.378;2023-11-21T13:35:36;3.38;;;0.80;;
28176;SDS011;15461;41.652;9.378;2023-11-21T13:38:13;1.23;;;0.70;;
28176;SDS011;15461;41.652;9.378;2023-11-21T13:40:46;3.58;;;0.68;;
28176;SDS011;15461;41.652;9.378;2023-11-21T13:43:14;4.47;;;0.90;;
28176;SDS011;15461;41.652;9.378;2023-11-21T13:45:42;2.28;;;0.77;;
28176;SDS011;15461;41.652;9.378;2023-11-21T13:48:09;1.48;;;0.50;;
28176;SDS011;15461;41.652;9.378;2023-11-21T13:50:41;0.80;;;0.30;;
28176;SDS011;15461;41.652;9.378;2023-11-21T13:53:28;2.03;;;0.50;;
28176;SDS011;15461;41.652;9.378;2023-11-21T13:55:54;3.85;;;0.70;;
28176;SDS011;15461;41.652;9.378;2023-11-21T13:58:21;8.38;;;0.57;;
28176;SDS011;15461;41.652;9.378;2023-11-21T14:01:00;3.60;;;0.55;;
28176;SDS011;15461;41.652;9.378;2023-11-21T14:03:26;2.75;;;0.60;;
28176;SDS011;15461;41.652;9.378;2023-11-21T14:06:04;1.83;;;0.50;;
28176;SDS011;15461;41.652;9.378;2023-11-21T14:08:39;1.48;;;0.43;;
28176;SDS011;15461;41.652;9.378;2023-11-21T14:11:07;0.28;;;0.28;;
28176;SDS011;15461;41.652;9.378;2023-11-21T14:13:33;0.70;;;0.30;;
28176;SDS011;15461;41.652;9.378;2023-11-21T14:15:58;3.15;;;0.55;;
28176;SDS011;15461;41.652;9.378;2023-11-21T14:18:26;1.95;;;0.60;;
28176;SDS011;15461;41.652;9.378;2023-11-21T14:23:25;2.85;;;0.52;;
28176;SDS011;15461;41.652;9.378;2023-11-21T14:25:50;2.15;;;0.52;;
28176;SDS011;15461;41.652;9.378;2023-11-21T14:28:17;2.45;;;0.63;;
28176;SDS011;15461;41.652;9.378;2023-11-21T14:30:44;4.57;;;0.52;;
28176;SDS011;15461;41.652;9.378;2023-11-21T14:33:13;2.65;;;0.40;;
28176;SDS011;15461;41.652;9.378;2023-11-21T14:35:41;3.38;;;0.60;;
28176;SDS011;15461;41.652;9.378;2023-11-21T14:38:08;3.65;;;1.05;;
28176;SDS011;15461;41.652;9.378;2023-11-21T14:40:35;1.65;;;0.55;;
28176;SDS011;15461;41.652;9.378;2023-11-21T14:43:01;2.28;;;0.55;;
28176;SDS011;15461;41.652;9.378;2023-11-21T14:45:34;5.97;;;0.47;;
28176;SDS011;15461;41.652;9.378;2023-11-21T14:48:00;4.65;;;0.90;;
28176;SDS011;15461;41.652;9.378;2023-11-21T14:50:42;3.42;;;0.98;;
28176;SDS011;15461;41.652;9.378;2023-11-21T14:53:11;8.73;;;0.82;;
28176;SDS011;15461;41.652;9.378;2023-11-21T14:55:40;4.47;;;1.00;;
28176;SDS011;15461;41.652;9.378;2023-11-21T14:58:15;1.02;;;0.60;;
28176;SDS011;15461;41.652;9.378;2023-11-21T15:00:49;6.80;;;0.82;;
28176;SDS011;15461;41.652;9.378;2023-11-21T15:03:17;1.98;;;0.50;;
28176;SDS011;15461;41.652;9.378;2023-11-21T15:06:01;0.50;;;0.40;;
28176;SDS011;15461;41.652;9.378;2023-11-21T15:08:50;4.63;;;0.73;;
28176;SDS011;15461;41.652;9.378;2023-11-21T15:11:37;2.78;;;0.70;;
28176;SDS011;15461;41.652;9.378;2023-11-21T15:14:04;2.38;;;0.88;;